createdAt,value
2024-05-09T00:00:15.767Z,253.67
2024-05-09T00:01:20.494Z,249.00
2024-05-09T00:02:22.358Z,244.67
2024-05-09T00:03:24.123Z,245.17
2024-05-09T00:04:26.030Z,246.00
2024-05-09T00:05:27.873Z,246.83
2024-05-09T00:06:29.668Z,247.00
2024-05-09T00:07:31.387Z,247.67
2024-05-09T00:08:33.161Z,248.00
2024-05-09T00:09:36.215Z,248.00
2024-05-09T00:10:39.410Z,247.33
2024-05-09T00:11:42.240Z,246.17
2024-05-09T00:12:44.051Z,246.00
2024-05-09T00:13:46.223Z,246.00
2024-05-09T00:14:47.870Z,245.33
2024-05-09T00:15:49.528Z,244.33
2024-05-09T00:16:51.154Z,245.00
2024-05-09T00:17:53.104Z,244.83
2024-05-09T00:18:54.938Z,242.67
2024-05-09T00:19:56.651Z,241.33
2024-05-09T00:20:58.759Z,239.50
2024-05-09T00:22:00.427Z,238.17
2024-05-09T00:23:02.127Z,238.00
2024-05-09T00:24:03.997Z,237.83
2024-05-09T00:25:07.564Z,236.33
2024-05-09T00:26:09.304Z,235.00
2024-05-09T00:27:13.252Z,233.50
2024-05-09T00:28:15.147Z,229.33
2024-05-09T00:29:16.827Z,227.50
2024-05-09T00:30:27.749Z,227.50
2024-05-09T00:31:34.373Z,226.00
2024-05-09T00:32:36.287Z,223.67
2024-05-09T00:33:38.225Z,220.17
2024-05-09T00:34:39.960Z,218.67
2024-05-09T00:35:41.854Z,216.33
2024-05-09T00:36:43.639Z,215.00
2024-05-09T00:37:45.354Z,215.00
2024-05-09T00:38:47.062Z,214.17
2024-05-09T00:39:48.682Z,215.00
2024-05-09T00:40:50.426Z,215.67
2024-05-09T00:41:52.107Z,216.00
2024-05-09T00:42:53.860Z,216.00
2024-05-09T00:43:55.581Z,216.00
2024-05-09T00:44:57.287Z,217.00
2024-05-09T00:46:00.843Z,217.50
2024-05-09T00:47:02.914Z,218.50
2024-05-09T00:48:06.026Z,221.83
2024-05-09T00:49:08.378Z,228.67
2024-05-09T00:50:15.969Z,233.50
2024-05-09T00:51:24.241Z,241.00
2024-05-09T00:52:27.281Z,242.67
2024-05-09T00:53:29.746Z,240.50
2024-05-09T00:54:32.159Z,238.83
2024-05-09T00:55:34.958Z,238.00
2024-05-09T00:56:37.179Z,238.00
2024-05-09T00:57:39.159Z,237.00
2024-05-09T00:58:42.607Z,237.17
2024-05-09T00:59:44.416Z,236.50
2024-05-09T01:00:48.169Z,233.83
2024-05-09T01:01:50.047Z,230.50
2024-05-09T01:02:51.959Z,224.50
2024-05-09T01:03:54.138Z,221.83
2024-05-09T01:04:58.542Z,220.67
2024-05-09T01:06:00.398Z,218.33
2024-05-09T01:07:02.151Z,216.17
2024-05-09T01:08:04.589Z,215.33
2024-05-09T01:09:06.317Z,215.50
2024-05-09T01:10:14.091Z,215.33
2024-05-09T01:11:22.610Z,215.33
2024-05-09T01:12:24.481Z,216.50
2024-05-09T01:13:26.154Z,217.00
2024-05-09T01:14:27.806Z,216.17
2024-05-09T01:15:29.535Z,214.50
2024-05-09T01:16:31.644Z,215.00
2024-05-09T01:17:33.603Z,215.00
2024-05-09T01:18:35.407Z,216.00
2024-05-09T01:19:37.215Z,217.67
2024-05-09T01:20:42.514Z,221.00
2024-05-09T01:21:46.369Z,222.17
2024-05-09T01:22:49.935Z,219.67
2024-05-09T01:23:51.734Z,212.50
2024-05-09T01:24:53.518Z,208.17
2024-05-09T01:25:55.303Z,208.17
2024-05-09T01:26:56.946Z,208.83
2024-05-09T01:27:58.841Z,209.67
2024-05-09T01:29:00.634Z,210.50
2024-05-09T01:30:04.021Z,211.00
2024-05-09T01:31:14.655Z,211.00
2024-05-09T01:32:16.448Z,210.83
2024-05-09T01:33:20.992Z,209.33
2024-05-09T01:34:22.802Z,206.17
2024-05-09T01:35:24.564Z,205.00
2024-05-09T01:36:26.357Z,205.00
2024-05-09T01:37:28.029Z,204.67
2024-05-09T01:38:29.741Z,204.00
2024-05-09T01:39:31.480Z,202.83
2024-05-09T01:40:37.855Z,194.83
2024-05-09T01:41:41.595Z,181.00
2024-05-09T01:42:43.427Z,176.83
2024-05-09T01:43:45.114Z,173.17
2024-05-09T01:44:46.789Z,172.83
2024-05-09T01:45:48.411Z,166.83
2024-05-09T01:46:50.053Z,160.00
2024-05-09T01:47:51.998Z,155.50
2024-05-09T01:48:53.865Z,153.00
2024-05-09T01:49:55.596Z,144.17
2024-05-09T01:50:57.328Z,140.33
2024-05-09T01:51:58.989Z,141.67
2024-05-09T01:53:00.707Z,141.17
2024-05-09T01:54:02.426Z,141.50
2024-05-09T01:55:07.235Z,139.50
2024-05-09T01:56:09.516Z,137.67
2024-05-09T01:57:11.229Z,133.17
2024-05-09T01:58:12.848Z,128.50
2024-05-09T01:59:14.616Z,123.67
2024-05-09T02:00:25.858Z,116.83
2024-05-09T02:01:55.378Z,109.67
2024-05-09T02:02:54.237Z,103.33
2024-05-09T02:03:56.288Z,98.17
2024-05-09T02:04:58.184Z,95.67
2024-05-09T02:05:59.952Z,98.50
2024-05-09T02:07:01.616Z,93.50
2024-05-09T02:08:04.349Z,88.50
2024-05-09T02:09:06.239Z,87.17
2024-05-09T02:10:13.809Z,87.17
2024-05-09T02:11:18.401Z,79.00
2024-05-09T02:12:20.171Z,74.17
2024-05-09T02:13:21.926Z,73.50
2024-05-09T02:14:23.668Z,69.00
2024-05-09T02:15:25.427Z,61.67
2024-05-09T02:16:27.015Z,61.33
2024-05-09T02:17:29.007Z,57.50
2024-05-09T02:18:30.906Z,52.17
2024-05-09T02:19:33.077Z,47.00
2024-05-09T02:20:38.128Z,43.50
2024-05-09T02:21:39.791Z,39.83
2024-05-09T02:22:41.420Z,39.83
2024-05-09T02:23:43.100Z,38.83
2024-05-09T02:24:44.789Z,42.33
2024-05-09T02:25:46.459Z,45.50
2024-05-09T02:26:48.105Z,45.67
2024-05-09T02:27:50.113Z,46.50
2024-05-09T02:28:51.801Z,46.17
2024-05-09T02:29:53.428Z,44.17
2024-05-09T02:30:55.112Z,43.67
2024-05-09T02:31:56.896Z,43.00
2024-05-09T02:32:59.183Z,41.67
2024-05-09T02:34:01.267Z,40.33
2024-05-09T02:35:03.536Z,37.67
2024-05-09T02:36:05.991Z,36.00
2024-05-09T02:37:07.600Z,36.67
2024-05-09T02:38:09.549Z,38.00
2024-05-09T02:39:11.404Z,38.33
2024-05-09T02:40:15.006Z,37.50
2024-05-09T02:41:23.155Z,36.50
2024-05-09T02:42:24.884Z,36.50
2024-05-09T02:43:26.541Z,37.00
2024-05-09T02:44:31.150Z,36.83
2024-05-09T02:45:33.105Z,35.00
2024-05-09T02:46:35.008Z,33.17
2024-05-09T02:47:37.026Z,33.00
2024-05-09T02:48:39.009Z,32.67
2024-05-09T02:49:40.859Z,33.00
2024-05-09T02:50:43.011Z,33.00
2024-05-09T02:51:44.692Z,33.17
2024-05-09T02:52:46.374Z,34.00
2024-05-09T02:53:48.062Z,33.67
2024-05-09T02:54:49.756Z,32.50
2024-05-09T02:55:51.477Z,32.00
2024-05-09T02:56:53.084Z,31.17
2024-05-09T02:57:54.764Z,31.00
2024-05-09T02:58:56.484Z,30.17
2024-05-09T02:59:58.169Z,29.50
2024-05-09T03:01:00.010Z,28.67
2024-05-09T03:02:01.830Z,27.50
2024-05-09T03:03:04.889Z,27.00
2024-05-09T03:04:06.945Z,27.00
2024-05-09T03:05:09.071Z,27.00
2024-05-09T03:06:10.698Z,26.83
2024-05-09T03:07:12.386Z,26.00
2024-05-09T03:08:14.265Z,26.00
2024-05-09T03:09:16.072Z,26.00
2024-05-09T03:10:22.456Z,26.00
2024-05-09T03:11:29.797Z,26.00
2024-05-09T03:12:31.550Z,26.00
2024-05-09T03:13:33.188Z,25.17
2024-05-09T03:14:34.893Z,25.00
2024-05-09T03:15:36.794Z,25.00
2024-05-09T03:16:40.849Z,25.00
2024-05-09T03:17:42.777Z,26.00
2024-05-09T03:18:44.880Z,44.83
2024-05-09T03:19:46.702Z,53.83
2024-05-09T03:20:48.391Z,49.50
2024-05-09T03:21:52.966Z,53.00
2024-05-09T03:22:56.959Z,62.50
2024-05-09T03:23:58.725Z,57.67
2024-05-09T03:25:00.385Z,53.83
2024-05-09T03:26:02.050Z,51.83
2024-05-09T03:27:03.785Z,50.50
2024-05-09T03:28:06.161Z,48.83
2024-05-09T03:29:07.817Z,48.00
2024-05-09T03:30:10.022Z,47.00
2024-05-09T03:31:11.685Z,46.83
2024-05-09T03:32:13.411Z,46.00
2024-05-09T03:33:19.852Z,45.67
2024-05-09T03:34:22.425Z,44.67
2024-05-09T03:35:24.201Z,43.67
2024-05-09T03:36:25.851Z,44.00
2024-05-09T03:37:27.474Z,48.33
2024-05-09T03:38:29.473Z,51.67
2024-05-09T03:39:32.404Z,53.17
2024-05-09T03:40:34.309Z,60.00
2024-05-09T03:41:36.037Z,70.50
2024-05-09T03:42:40.750Z,81.67
2024-05-09T03:43:43.038Z,89.00
2024-05-09T03:44:44.693Z,84.17
2024-05-09T03:45:48.453Z,76.00
2024-05-09T03:46:50.180Z,73.33
2024-05-09T03:47:52.434Z,72.83
2024-05-09T03:48:54.511Z,75.67
2024-05-09T03:49:56.247Z,77.00
2024-05-09T03:50:57.936Z,77.00
2024-05-09T03:52:03.930Z,75.67
2024-05-09T03:53:09.433Z,74.67
2024-05-09T03:54:11.503Z,73.50
2024-05-09T03:55:13.139Z,73.00
2024-05-09T03:56:14.827Z,71.17
2024-05-09T03:57:16.494Z,64.83
2024-05-09T03:58:18.208Z,60.17
2024-05-09T03:59:19.850Z,59.00
2024-05-09T04:00:30.747Z,60.83
2024-05-09T04:01:38.738Z,76.83
2024-05-09T04:02:42.297Z,98.67
2024-05-09T04:03:46.936Z,116.33
2024-05-09T04:04:48.883Z,110.67
2024-05-09T04:05:50.638Z,108.67
2024-05-09T04:06:52.321Z,112.17
2024-05-09T04:07:54.027Z,110.17
2024-05-09T04:08:55.679Z,112.00
2024-05-09T04:09:57.304Z,112.83
2024-05-09T04:10:58.966Z,109.83
2024-05-09T04:12:00.901Z,106.50
2024-05-09T04:13:05.495Z,97.17
2024-05-09T04:14:07.412Z,93.00
2024-05-09T04:15:12.841Z,95.67
2024-05-09T04:16:15.135Z,107.83
2024-05-09T04:17:16.810Z,116.00
2024-05-09T04:18:18.511Z,111.50
2024-05-09T04:19:20.494Z,110.83
2024-05-09T04:20:33.059Z,125.17
2024-05-09T04:21:39.920Z,177.33
2024-05-09T04:22:41.581Z,190.50
2024-05-09T04:23:43.242Z,183.67
2024-05-09T04:24:44.983Z,192.00
2024-05-09T04:25:46.672Z,187.33
2024-05-09T04:26:48.400Z,189.00
2024-05-09T04:27:54.426Z,177.50
2024-05-09T04:28:56.112Z,165.83
2024-05-09T04:29:57.728Z,166.83
2024-05-09T04:30:59.548Z,189.50
2024-05-09T04:32:04.465Z,195.17
2024-05-09T04:33:13.240Z,181.17
2024-05-09T04:34:16.900Z,174.00
2024-05-09T04:35:21.203Z,174.83
2024-05-09T04:36:23.217Z,175.50
2024-05-09T04:37:25.244Z,161.50
2024-05-09T04:38:28.783Z,128.33
2024-05-09T04:39:31.043Z,102.33
2024-05-09T04:40:35.910Z,96.83
2024-05-09T04:41:38.925Z,84.50
2024-05-09T04:42:40.652Z,63.50
2024-05-09T04:43:42.308Z,56.67
2024-05-09T04:44:44.020Z,43.00
2024-05-09T04:45:46.144Z,37.83
2024-05-09T04:46:47.885Z,38.00
2024-05-09T04:47:49.954Z,44.00
2024-05-09T04:48:52.578Z,43.67
2024-05-09T04:49:57.180Z,37.33
2024-05-09T04:51:00.819Z,36.83
2024-05-09T04:52:02.587Z,51.00
2024-05-09T04:53:08.506Z,57.67
2024-05-09T04:54:22.185Z,46.33
2024-05-09T04:55:31.898Z,26.00
2024-05-09T04:56:33.688Z,22.83
2024-05-09T04:57:35.424Z,21.00
2024-05-09T04:58:37.042Z,17.50
2024-05-09T04:59:38.746Z,13.00
2024-05-09T05:00:43.277Z,10.33
2024-05-09T05:01:45.160Z,10.83
2024-05-09T05:02:46.988Z,13.00
2024-05-09T05:03:48.962Z,16.33
2024-05-09T05:04:50.852Z,18.83
2024-05-09T05:05:52.630Z,20.67
2024-05-09T05:06:54.255Z,31.17
2024-05-09T05:07:56.000Z,73.00
2024-05-09T05:08:57.688Z,74.00
2024-05-09T05:09:59.327Z,58.67
2024-05-09T05:11:01.073Z,48.33
2024-05-09T05:12:23.093Z,32.33
2024-05-09T05:13:29.964Z,17.50
2024-05-09T05:14:31.675Z,12.67
2024-05-09T05:15:33.397Z,11.67
2024-05-09T05:16:35.212Z,11.67
2024-05-09T05:17:37.125Z,13.50
2024-05-09T05:18:39.092Z,14.67
2024-05-09T05:19:40.856Z,15.00
2024-05-09T05:20:43.200Z,15.67
2024-05-09T05:21:44.971Z,17.67
2024-05-09T05:22:46.860Z,22.33
2024-05-09T05:23:48.635Z,24.00
2024-05-09T05:24:50.336Z,23.33
2024-05-09T05:25:53.205Z,23.17
2024-05-09T05:26:55.355Z,27.00
2024-05-09T05:27:56.985Z,33.67
2024-05-09T05:28:58.731Z,35.00
2024-05-09T05:30:00.425Z,40.33
2024-05-09T05:31:02.102Z,61.83
2024-05-09T05:32:04.093Z,76.50
2024-05-09T05:33:09.948Z,73.83
2024-05-09T05:34:11.770Z,66.83
2024-05-09T05:35:13.536Z,58.50
2024-05-09T05:36:15.203Z,54.67
2024-05-09T05:37:16.846Z,45.33
2024-05-09T05:38:19.139Z,43.00
2024-05-09T05:39:24.799Z,43.00
2024-05-09T05:40:33.329Z,42.83
2024-05-09T05:41:38.502Z,84.17
2024-05-09T05:42:40.187Z,95.00
2024-05-09T05:43:41.851Z,75.50
2024-05-09T05:44:43.514Z,70.00
2024-05-09T05:45:48.500Z,65.50
2024-05-09T05:46:50.233Z,53.50
2024-05-09T05:47:54.756Z,52.67
2024-05-09T05:48:56.874Z,53.00
2024-05-09T05:49:58.647Z,56.83
2024-05-09T05:51:03.624Z,56.67
2024-05-09T05:52:06.203Z,36.50
2024-05-09T05:53:10.170Z,22.00
2024-05-09T05:54:12.293Z,19.33
2024-05-09T05:55:14.035Z,29.17
2024-05-09T05:56:15.839Z,33.00
2024-05-09T05:57:17.982Z,35.50
2024-05-09T05:58:20.448Z,52.67
2024-05-09T05:59:22.929Z,80.17
2024-05-09T06:00:34.007Z,86.83
2024-05-09T06:01:40.343Z,71.67
2024-05-09T06:02:42.915Z,67.83
2024-05-09T06:03:44.903Z,59.83
2024-05-09T06:04:46.961Z,50.50
2024-05-09T06:05:48.846Z,57.00
2024-05-09T06:06:50.916Z,47.50
2024-05-09T06:07:52.596Z,37.00
2024-05-09T06:08:54.322Z,29.17
2024-05-09T06:09:56.095Z,27.00
2024-05-09T06:10:57.893Z,20.83
2024-05-09T06:11:59.621Z,13.17
2024-05-09T06:13:01.350Z,9.83
2024-05-09T06:14:04.279Z,8.33
2024-05-09T06:15:06.290Z,8.50
2024-05-09T06:16:07.929Z,9.17
2024-05-09T06:17:09.733Z,11.00
2024-05-09T06:18:13.294Z,14.50
2024-05-09T06:19:15.308Z,16.00
2024-05-09T06:20:23.853Z,16.00
2024-05-09T06:21:33.326Z,16.50
2024-05-09T06:22:35.052Z,15.33
2024-05-09T06:23:46.827Z,14.00
2024-05-09T06:24:48.500Z,12.17
2024-05-09T06:25:50.232Z,11.00
2024-05-09T06:26:52.062Z,11.17
2024-05-09T06:27:53.782Z,13.67
2024-05-09T06:28:55.545Z,20.67
2024-05-09T06:29:58.753Z,33.17
2024-05-09T06:31:01.035Z,34.83
2024-05-09T06:32:03.374Z,32.17
2024-05-09T06:33:06.087Z,25.17
2024-05-09T06:34:08.039Z,15.83
2024-05-09T06:35:09.841Z,9.50
2024-05-09T06:36:12.137Z,5.50
2024-05-09T06:37:13.820Z,4.00
2024-05-09T06:38:15.615Z,4.00
2024-05-09T06:39:17.216Z,4.00
2024-05-09T06:40:25.480Z,4.00
2024-05-09T06:41:31.550Z,4.83
2024-05-09T06:42:33.290Z,5.00
2024-05-09T06:43:36.763Z,5.00
2024-05-09T06:44:38.491Z,5.00
2024-05-09T06:45:40.417Z,5.00
2024-05-09T06:46:45.399Z,5.00
2024-05-09T06:47:48.625Z,5.00
2024-05-09T06:48:51.536Z,5.00
2024-05-09T06:49:53.413Z,5.00
2024-05-09T06:50:55.245Z,5.00
2024-05-09T06:51:56.921Z,5.00
2024-05-09T06:52:58.587Z,4.17
2024-05-09T06:54:00.457Z,4.00
2024-05-09T06:55:02.203Z,4.00
2024-05-09T06:56:05.079Z,3.83
2024-05-09T06:57:07.002Z,3.00
2024-05-09T06:58:09.668Z,3.00
2024-05-09T06:59:11.615Z,3.00
2024-05-09T07:00:19.194Z,3.00
2024-05-09T07:01:32.032Z,3.00
2024-05-09T07:02:34.018Z,3.00
2024-05-09T07:03:36.071Z,3.00
2024-05-09T07:04:37.958Z,3.00
2024-05-09T07:05:40.277Z,3.00
2024-05-09T07:06:42.497Z,4.00
2024-05-09T07:07:44.644Z,4.50
2024-05-09T07:08:48.039Z,5.50
2024-05-09T07:09:50.334Z,6.67
2024-05-09T07:10:52.113Z,7.00
2024-05-09T07:11:54.566Z,7.17
2024-05-09T07:12:56.340Z,8.00
2024-05-09T07:13:58.058Z,8.00
2024-05-09T07:14:59.814Z,8.00
2024-05-09T07:16:01.627Z,8.00
2024-05-09T07:17:03.565Z,8.00
2024-05-09T07:18:14.346Z,8.00
2024-05-09T07:19:16.422Z,7.33
2024-05-09T07:20:23.722Z,7.00
2024-05-09T07:21:33.980Z,6.17
2024-05-09T07:22:35.826Z,5.50
2024-05-09T07:23:37.694Z,5.00
2024-05-09T07:24:39.450Z,4.50
2024-05-09T07:25:41.660Z,4.00
2024-05-09T07:26:43.542Z,4.00
2024-05-09T07:27:45.344Z,3.00
2024-05-09T07:28:47.389Z,3.00
2024-05-09T07:29:50.667Z,3.00
2024-05-09T07:30:52.402Z,3.00
2024-05-09T07:31:54.237Z,3.00
2024-05-09T07:32:56.760Z,3.00
2024-05-09T07:33:59.366Z,3.00
2024-05-09T07:35:01.243Z,3.00
2024-05-09T07:36:03.084Z,3.00
2024-05-09T07:37:11.356Z,3.00
2024-05-09T07:38:13.083Z,3.00
2024-05-09T07:39:14.829Z,3.00
2024-05-09T07:40:24.964Z,3.00
2024-05-09T07:41:36.147Z,3.00
2024-05-09T07:42:37.974Z,3.00
2024-05-09T07:43:39.721Z,3.00
2024-05-09T07:44:41.583Z,3.00
2024-05-09T07:45:51.732Z,3.00
2024-05-09T07:53:30.102Z,4.00
2024-05-09T07:53:46.187Z,3.00
2024-05-09T07:54:51.504Z,3.00
2024-05-09T07:55:54.487Z,3.00
2024-05-09T07:56:56.465Z,3.00
2024-05-09T07:57:58.259Z,3.00
2024-05-09T07:58:59.983Z,3.00
2024-05-09T08:00:01.690Z,3.00
2024-05-09T08:01:04.295Z,3.00
2024-05-09T08:02:06.474Z,3.00
2024-05-09T08:03:09.326Z,3.00
2024-05-09T08:04:11.192Z,3.00
2024-05-09T08:05:13.229Z,3.00
2024-05-09T08:06:15.492Z,3.00
2024-05-09T08:07:18.856Z,3.00
2024-05-09T08:08:21.063Z,3.00
2024-05-09T08:09:25.709Z,3.00
2024-05-09T08:10:29.138Z,3.00
2024-05-09T08:11:31.659Z,2.83
2024-05-09T08:12:33.443Z,2.00
2024-05-09T08:13:35.158Z,2.00
2024-05-09T08:14:36.967Z,2.00
2024-05-09T08:15:38.722Z,2.00
2024-05-09T08:16:40.517Z,2.00
2024-05-09T08:17:42.259Z,2.00
2024-05-09T08:18:44.069Z,2.00
2024-05-09T08:19:46.738Z,2.00
2024-05-09T08:20:49.051Z,2.00
2024-05-09T08:21:50.928Z,2.33
2024-05-09T08:22:52.703Z,3.00
2024-05-09T08:23:55.084Z,3.00
2024-05-09T08:24:59.777Z,3.00
2024-05-09T08:26:01.609Z,3.00
2024-05-09T08:27:03.478Z,3.00
2024-05-09T08:28:06.529Z,3.00
2024-05-09T08:29:09.631Z,3.00
2024-05-09T08:30:18.960Z,3.00
2024-05-09T08:31:26.772Z,3.00
2024-05-09T08:32:31.176Z,3.00
2024-05-09T08:33:33.348Z,3.00
2024-05-09T08:34:35.340Z,3.00
2024-05-09T08:35:37.095Z,3.00
2024-05-09T08:36:39.752Z,3.00
2024-05-09T08:37:42.559Z,3.00
2024-05-09T08:38:44.367Z,3.00
2024-05-09T08:39:46.110Z,3.00
2024-05-09T08:40:48.220Z,3.00
2024-05-09T08:41:53.166Z,3.00
2024-05-09T08:42:56.598Z,3.67
2024-05-09T08:43:59.421Z,4.00
2024-05-09T08:45:01.436Z,4.33
2024-05-09T08:46:06.180Z,5.00
2024-05-09T08:47:09.249Z,5.00
2024-05-09T08:48:12.959Z,5.00
2024-05-09T08:49:16.397Z,4.33
2024-05-09T08:50:29.218Z,4.00
2024-05-09T08:51:38.170Z,4.00
2024-05-09T08:52:39.872Z,4.00
2024-05-09T08:53:41.610Z,4.00
2024-05-09T08:54:43.893Z,4.83
2024-05-09T08:55:46.207Z,6.00
2024-05-09T08:56:49.572Z,6.00
2024-05-09T08:57:52.495Z,6.00
2024-05-09T08:59:00.321Z,5.67
2024-05-09T09:00:07.881Z,5.00
2024-05-09T09:01:13.354Z,5.00
2024-05-09T09:02:17.492Z,5.00
2024-05-09T09:03:25.456Z,5.00
2024-05-09T09:04:29.221Z,5.00
2024-05-09T09:05:37.026Z,4.00
2024-05-09T09:06:38.984Z,4.00
2024-05-09T09:07:41.792Z,4.00
2024-05-09T09:08:45.143Z,4.00
2024-05-09T09:09:47.744Z,4.00
2024-05-09T09:10:53.045Z,4.00
2024-05-09T09:11:54.875Z,3.50
2024-05-09T09:13:02.592Z,3.00
2024-05-09T09:14:04.324Z,3.00
2024-05-09T09:15:06.119Z,3.00
2024-05-09T09:16:08.069Z,3.00
2024-05-09T09:17:16.433Z,3.33
2024-05-09T09:18:18.696Z,4.00
2024-05-09T09:19:21.995Z,4.00
2024-05-09T09:20:34.009Z,4.00
2024-05-09T09:21:41.288Z,4.00
2024-05-09T09:22:42.992Z,4.00
2024-05-09T09:23:44.840Z,4.83
2024-05-09T09:24:46.623Z,5.00
2024-05-09T09:25:49.066Z,5.00
2024-05-09T09:26:50.821Z,5.00
2024-05-09T09:27:52.575Z,5.00
2024-05-09T09:28:59.146Z,5.00
2024-05-09T09:30:00.855Z,5.00
2024-05-09T09:31:03.463Z,5.33
2024-05-09T09:32:07.403Z,6.00
2024-05-09T09:33:09.524Z,6.00
2024-05-09T09:34:11.654Z,6.00
2024-05-09T09:35:13.473Z,6.67
2024-05-09T09:36:17.212Z,7.00
2024-05-09T09:37:27.153Z,7.00
2024-05-09T09:38:31.221Z,6.33
2024-05-09T09:39:35.084Z,6.00
2024-05-09T09:40:44.990Z,5.33
2024-05-09T09:41:51.446Z,5.00
2024-05-09T09:42:56.501Z,5.00
2024-05-09T09:44:00.263Z,4.17
2024-05-09T09:45:05.309Z,4.00
2024-05-09T09:46:11.738Z,4.00
2024-05-09T09:47:16.684Z,5.33
2024-05-09T09:48:21.534Z,51.00
2024-05-09T09:49:23.885Z,43.33
2024-05-09T09:50:33.368Z,29.67
2024-05-09T09:51:42.487Z,26.50
2024-05-09T09:52:45.426Z,25.17
2024-05-09T09:53:49.388Z,23.83
2024-05-09T09:54:53.232Z,21.50
2024-05-09T09:55:55.418Z,18.17
2024-05-09T09:56:57.691Z,15.83
2024-05-09T09:58:00.259Z,13.83
2024-05-09T09:59:05.381Z,12.83
2024-05-09T10:00:17.198Z,11.67
2024-05-09T10:01:22.443Z,10.00
2024-05-09T10:02:25.406Z,8.50
2024-05-09T10:03:27.677Z,7.33
2024-05-09T10:04:31.820Z,7.00
2024-05-09T10:05:39.829Z,6.17
2024-05-09T10:06:49.418Z,7.00
2024-05-09T10:07:52.189Z,7.00
2024-05-09T10:08:55.171Z,12.67
2024-05-09T10:09:57.163Z,24.00
2024-05-09T10:11:05.329Z,21.50
2024-05-09T10:12:12.469Z,19.50
2024-05-09T10:13:14.678Z,17.00
2024-05-09T10:14:20.696Z,14.33
2024-05-09T10:15:22.432Z,12.33
2024-05-09T10:16:29.936Z,10.67
2024-05-09T10:17:31.805Z,9.50
2024-05-09T10:18:38.973Z,8.33
2024-05-09T10:19:41.235Z,8.00
2024-05-09T10:20:44.559Z,8.00
2024-05-09T10:21:46.371Z,8.83
2024-05-09T10:22:49.395Z,10.33
2024-05-09T10:24:06.009Z,11.00
2024-05-09T10:25:07.766Z,11.83
2024-05-09T10:26:09.606Z,12.00
2024-05-09T10:27:11.352Z,12.00
2024-05-09T10:28:13.092Z,12.67
2024-05-09T10:29:17.243Z,13.50
2024-05-09T10:30:29.613Z,15.00
2024-05-09T10:31:40.681Z,15.00
2024-05-09T10:32:43.831Z,15.83
2024-05-09T10:33:47.782Z,17.83
2024-05-09T10:35:10.708Z,31.67
2024-05-09T10:36:13.099Z,30.17
2024-05-09T10:37:14.875Z,26.17
2024-05-09T10:38:17.218Z,19.50
2024-05-09T10:39:20.104Z,15.00
2024-05-09T10:41:24.488Z,11.17
2024-05-09T10:42:28.318Z,11.00
2024-05-09T10:43:30.354Z,11.50
2024-05-09T10:44:36.534Z,12.67
2024-05-09T10:45:38.228Z,14.00
2024-05-09T10:46:46.445Z,14.00
2024-05-09T10:47:48.673Z,14.00
2024-05-09T10:48:53.683Z,14.00
2024-05-09T10:49:56.038Z,14.00
2024-05-09T10:50:58.146Z,14.00
2024-05-09T10:52:03.028Z,14.00
2024-05-09T10:53:06.977Z,14.00
2024-05-09T10:54:09.004Z,14.00
2024-05-09T10:55:10.752Z,14.00
2024-05-09T10:56:13.476Z,14.00
2024-05-09T10:57:15.389Z,14.00
2024-05-09T10:58:17.174Z,14.83
2024-05-09T10:59:18.943Z,17.17
2024-05-09T11:00:27.580Z,23.17
2024-05-09T11:01:35.602Z,25.17
2024-05-09T11:02:40.914Z,25.00
2024-05-09T11:03:47.343Z,24.33
2024-05-09T11:04:50.336Z,24.00
2024-05-09T11:05:54.214Z,24.83
2024-05-09T11:06:56.801Z,25.50
2024-05-09T11:07:58.602Z,26.00
2024-05-09T11:09:00.316Z,33.83
2024-05-09T11:10:04.908Z,49.00
2024-05-09T11:11:09.419Z,48.67
2024-05-09T11:12:12.378Z,45.00
2024-05-09T11:13:34.906Z,42.33
2024-05-09T11:14:36.695Z,41.17
2024-05-09T11:15:43.678Z,40.00
2024-05-09T11:16:45.532Z,39.00
2024-05-09T11:17:47.387Z,39.00
2024-05-09T11:18:56.841Z,40.50
2024-05-09T11:19:59.223Z,44.83
2024-05-09T11:21:00.997Z,48.67
2024-05-09T11:22:06.168Z,52.17
2024-05-09T11:23:08.032Z,60.17
2024-05-09T11:24:11.517Z,65.50
2024-05-09T11:25:13.654Z,64.67
2024-05-09T11:26:18.091Z,63.50
2024-05-09T11:27:20.449Z,60.83
2024-05-09T11:28:25.014Z,59.00
2024-05-09T11:29:40.509Z,57.83
2024-05-09T11:30:42.336Z,58.33
2024-05-09T11:31:48.242Z,65.33
2024-05-09T11:32:51.392Z,72.33
2024-05-09T11:33:53.709Z,68.83
2024-05-09T11:34:55.782Z,66.67
2024-05-09T11:35:57.502Z,65.33
2024-05-09T11:36:59.370Z,65.17
2024-05-09T11:38:01.265Z,66.83
2024-05-09T11:39:03.192Z,79.83
2024-05-09T11:40:07.093Z,82.50
2024-05-09T11:41:17.323Z,77.33
2024-05-09T11:42:21.346Z,76.00
2024-05-09T11:43:23.352Z,78.67
2024-05-09T11:44:26.070Z,87.17
2024-05-09T11:45:27.812Z,86.50
2024-05-09T11:46:29.563Z,83.83
2024-05-09T11:47:31.326Z,82.33
2024-05-09T11:48:33.586Z,82.00
2024-05-09T11:49:35.463Z,82.17
2024-05-09T11:50:41.126Z,85.17
2024-05-09T11:51:42.918Z,93.33
2024-05-09T11:52:47.232Z,100.33
2024-05-09T11:53:48.925Z,104.17
2024-05-09T11:54:50.683Z,99.17
2024-05-09T11:55:52.576Z,97.83
2024-05-09T11:56:54.401Z,99.50
2024-05-09T11:57:56.468Z,107.50
2024-05-09T11:58:58.359Z,110.17
2024-05-09T12:00:00.119Z,111.00
2024-05-09T12:01:01.995Z,113.50
2024-05-09T12:02:04.017Z,109.83
2024-05-09T12:03:07.273Z,106.33
2024-05-09T12:04:09.400Z,102.17
2024-05-09T12:05:11.373Z,108.67
2024-05-09T12:06:13.193Z,129.50
2024-05-09T12:07:17.011Z,127.00
2024-05-09T12:08:19.064Z,124.67
2024-05-09T12:09:23.380Z,121.50
2024-05-09T12:10:32.136Z,120.17
2024-05-09T12:11:36.270Z,122.17
2024-05-09T12:12:40.570Z,131.17
2024-05-09T12:13:42.272Z,147.67
2024-05-09T12:14:43.990Z,142.83
2024-05-09T12:15:45.753Z,137.33
2024-05-09T12:16:47.683Z,135.50
2024-05-09T12:17:51.873Z,133.67
2024-05-09T12:18:57.115Z,133.00
2024-05-09T12:20:01.726Z,132.83
2024-05-09T12:21:03.816Z,132.17
2024-05-09T12:22:05.661Z,132.33
2024-05-09T12:23:08.643Z,131.17
2024-05-09T12:24:14.426Z,131.00
2024-05-09T12:25:17.084Z,128.83
2024-05-09T12:26:18.902Z,124.17
2024-05-09T12:27:21.058Z,123.00
2024-05-09T12:28:23.035Z,129.33
2024-05-09T12:29:25.395Z,139.83
2024-05-09T12:30:35.668Z,141.00
2024-05-09T12:31:40.746Z,139.00
2024-05-09T12:32:42.690Z,137.17
2024-05-09T12:33:45.045Z,132.50
2024-05-09T12:34:46.888Z,129.83
2024-05-09T12:35:51.404Z,138.00
2024-05-09T12:36:53.171Z,147.33
2024-05-09T12:37:54.983Z,157.67
2024-05-09T12:38:56.691Z,157.83
2024-05-09T12:39:58.660Z,158.17
2024-05-09T12:41:00.810Z,165.83
2024-05-09T12:42:02.692Z,171.67
2024-05-09T12:43:09.280Z,177.17
2024-05-09T12:44:11.976Z,177.50
2024-05-09T12:45:14.046Z,180.83
2024-05-09T12:46:19.295Z,185.17
2024-05-09T12:47:21.222Z,207.00
2024-05-09T12:48:23.169Z,207.67
2024-05-09T12:49:25.171Z,201.00
2024-05-09T12:50:32.206Z,198.00
2024-05-09T12:51:35.847Z,191.33
2024-05-09T12:52:37.718Z,188.67
2024-05-09T12:53:39.478Z,187.67
2024-05-09T12:54:41.317Z,191.83
2024-05-09T12:55:52.614Z,200.33
2024-05-09T12:56:59.146Z,199.17
2024-05-09T12:58:01.134Z,195.50
2024-05-09T12:59:02.933Z,191.50
2024-05-09T13:00:05.803Z,190.00
2024-05-09T13:01:09.009Z,189.00
2024-05-09T13:02:11.208Z,185.67
2024-05-09T13:03:13.402Z,185.67
2024-05-09T13:04:15.547Z,180.33
2024-05-09T13:05:17.677Z,167.17
2024-05-09T13:06:19.467Z,168.83
2024-05-09T13:07:21.521Z,170.67
2024-05-09T13:08:23.599Z,179.17
2024-05-09T13:09:25.325Z,196.67
2024-05-09T13:10:32.072Z,194.33
2024-05-09T13:11:35.075Z,192.33
2024-05-09T13:12:37.298Z,191.00
2024-05-09T13:13:39.061Z,191.50
2024-05-09T13:14:40.930Z,190.50
2024-05-09T13:15:43.009Z,189.67
2024-05-09T13:16:44.833Z,185.50
2024-05-09T13:17:46.634Z,178.33
2024-05-09T13:18:48.670Z,168.33
2024-05-09T13:19:50.478Z,168.00
2024-05-09T13:20:52.147Z,169.83
2024-05-09T13:21:53.928Z,174.83
2024-05-09T13:22:55.714Z,190.83
2024-05-09T13:23:58.343Z,192.00
2024-05-09T13:25:01.632Z,189.50
2024-05-09T13:26:03.556Z,186.50
2024-05-09T13:27:05.350Z,189.00
2024-05-09T13:28:07.609Z,191.17
2024-05-09T13:29:09.767Z,190.00
2024-05-09T13:30:17.672Z,186.33
2024-05-09T13:31:23.618Z,179.17
2024-05-09T13:32:25.474Z,190.00
2024-05-09T13:33:30.192Z,202.83
2024-05-09T13:34:32.402Z,203.83
2024-05-09T13:35:34.122Z,199.50
2024-05-09T13:36:35.911Z,197.00
2024-05-09T13:37:37.935Z,193.17
2024-05-09T13:38:39.602Z,180.50